Time;durP1;ratioP1;P1;durP2;ratioP2;P2;SDS_P1;SDS_P2;PMS_P1;PMS_P2;Temp;Humidity;BMP_temperature;BMP_pressure;BME280_temperature;BME280_humidity;BME280_pressure;Samples;Min_cycle;Max_cycle;Signal;HPM_P1;HPM_P2
2022/05/24 00:01:57;;;;;;;6.35;5.05;;;;;;;;;;6063514;29;20237;-67
2022/05/24 00:05:18;;;;;;;5.55;4.65;;;;;;;;;;6064216;29;20245;-67
2022/05/24 00:08:39;;;;;;;5.43;4.80;;;;;;;;;;6061923;29;20983;-67
2022/05/24 00:11:59;;;;;;;5.68;5.18;;;;;;;;;;6061493;29;20241;-67
2022/05/24 00:15:27;;;;;;;6.15;4.45;;;;;;;;;;6063547;29;20229;-66
2022/05/24 00:18:48;;;;;;;5.53;4.35;;;;;;;;;;6062603;29;20233;-68
2022/05/24 00:22:11;;;;;;;5.18;4.70;;;;;;;;;;6060376;29;20237;-67
2022/05/24 00:25:33;;;;;;;4.78;4.28;;;;;;;;;;6062057;29;20233;-68
2022/05/24 00:28:53;;;;;;;6.18;4.38;;;;;;;;;;6064817;29;20237;-67
2022/05/24 00:32:15;;;;;;;6.50;4.95;;;;;;;;;;6065133;29;20279;-67
2022/05/24 00:35:36;;;;;;;5.32;4.93;;;;;;;;;;6064441;29;20237;-66
2022/05/24 00:38:56;;;;;;;5.32;4.85;;;;;;;;;;6062043;29;22041;-67
2022/05/24 00:42:19;;;;;;;5.18;4.78;;;;;;;;;;6060009;29;20233;-67
2022/05/24 00:45:41;;;;;;;7.18;5.82;;;;;;;;;;6061245;29;20316;-68
2022/05/24 00:49:04;;;;;;;5.53;5.03;;;;;;;;;;6062042;29;20241;-67
2022/05/24 00:52:28;;;;;;;5.95;5.35;;;;;;;;;;6050302;29;20233;-66
2022/05/24 00:55:50;;;;;;;5.78;5.28;;;;;;;;;;6064683;29;20238;-68
2022/05/24 00:59:19;;;;;;;6.63;5.78;;;;;;;;;;6061068;29;20378;-67
2022/05/24 01:02:41;;;;;;;6.00;5.50;;;;;;;;;;6064509;29;20286;-67
2022/05/24 01:06:03;;;;;;;7.18;6.40;;;;;;;;;;6064640;29;20762;-66
2022/05/24 01:09:24;;;;;;;6.32;5.78;;;;;;;;;;6059328;29;20253;-65
2022/05/24 01:12:47;;;;;;;7.70;5.97;;;;;;;;;;6063653;29;20230;-67
2022/05/24 01:16:08;;;;;;;9.18;6.15;;;;;;;;;;6066655;29;20241;-66
2022/05/24 01:19:33;;;;;;;5.55;5.10;;;;;;;;;;6063975;29;20259;-67
2022/05/24 01:23:08;;;;;;;6.47;5.93;;;;;;;;;;6065710;29;20616;-68
2022/05/24 01:26:45;;;;;;;6.78;6.22;;;;;;;;;;6065613;29;20257;-67
2022/05/24 01:30:07;;;;;;;7.53;6.90;;;;;;;;;;6061160;29;20234;-65
2022/05/24 01:37:07;;;;;;;7.80;7.15;;;;;;;;;;6061155;29;20731;-68
2022/05/24 01:40:27;;;;;;;8.13;7.53;;;;;;;;;;6053224;29;20238;-68
2022/05/24 01:43:50;;;;;;;8.35;7.68;;;;;;;;;;6061265;29;20324;-67
2022/05/24 01:47:11;;;;;;;8.70;8.00;;;;;;;;;;6050558;29;20237;-66
2022/05/24 01:50:34;;;;;;;9.77;8.85;;;;;;;;;;6062606;29;20237;-69
2022/05/24 01:53:57;;;;;;;7.70;7.10;;;;;;;;;;6061133;29;20249;-67
2022/05/24 01:57:20;;;;;;;8.02;7.30;;;;;;;;;;6059456;29;20659;-68
2022/05/24 02:00:43;;;;;;;4.73;4.43;;;;;;;;;;6056083;29;20708;-68
2022/05/24 02:04:07;;;;;;;3.50;3.00;;;;;;;;;;6062367;29;20244;-67
2022/05/24 02:07:27;;;;;;;3.83;3.00;;;;;;;;;;6063281;29;20249;-68
2022/05/24 02:10:51;;;;;;;3.88;3.42;;;;;;;;;;6058401;29;20788;-67
2022/05/24 02:14:14;;;;;;;2.83;2.57;;;;;;;;;;6060868;29;20320;-67
2022/05/24 02:17:39;;;;;;;3.35;3.10;;;;;;;;;;6060420;29;20241;-67
2022/05/24 02:21:01;;;;;;;3.30;2.97;;;;;;;;;;6060740;29;20612;-66
2022/05/24 02:24:22;;;;;;;4.38;3.92;;;;;;;;;;6062261;29;20229;-66
2022/05/24 02:27:45;;;;;;;4.17;3.77;;;;;;;;;;6061452;29;20229;-66
2022/05/24 02:31:07;;;;;;;4.93;4.27;;;;;;;;;;6061913;29;20674;-65
2022/05/24 02:34:29;;;;;;;3.73;3.53;;;;;;;;;;6061393;29;20245;-66
2022/05/24 02:37:50;;;;;;;5.03;4.63;;;;;;;;;;6062227;29;20233;-66
2022/05/24 02:44:48;;;;;;;8.13;7.43;;;;;;;;;;6062021;29;20812;-67
2022/05/24 02:48:09;;;;;;;7.47;6.77;;;;;;;;;;6057959;29;20238;-68
2022/05/24 02:51:31;;;;;;;7.77;7.17;;;;;;;;;;6056964;29;20248;-67
2022/05/24 02:54:51;;;;;;;9.47;8.53;;;;;;;;;;6053889;29;20241;-67
2022/05/24 02:58:12;;;;;;;8.27;7.47;;;;;;;;;;6057725;29;20237;-68
2022/05/24 03:01:33;;;;;;;9.07;8.27;;;;;;;;;;6054985;29;20241;-68
2022/05/24 03:04:53;;;;;;;9.97;9.03;;;;;;;;;;6057460;29;20252;-68
2022/05/24 03:15:34;;;;;;;10.20;9.20;;;;;;;;;;6059026;29;20233;-67
2022/05/24 03:18:55;;;;;;;10.63;9.73;;;;;;;;;;6057963;29;20249;-67
2022/05/24 03:22:16;;;;;;;9.70;8.73;;;;;;;;;;6064121;29;20233;-66
2022/05/24 03:25:38;;;;;;;9.47;8.57;;;;;;;;;;6063552;29;20261;-67
2022/05/24 03:28:58;;;;;;;9.50;8.70;;;;;;;;;;6068947;29;20237;-67
2022/05/24 03:32:20;;;;;;;10.03;9.13;;;;;;;;;;6052685;29;20264;-67
2022/05/24 03:35:41;;;;;;;9.70;8.33;;;;;;;;;;6060742;29;20241;-67
2022/05/24 03:39:01;;;;;;;10.60;9.60;;;;;;;;;;6062417;29;20237;-68
2022/05/24 03:42:24;;;;;;;10.80;9.87;;;;;;;;;;6058661;29;20244;-67
2022/05/24 03:45:46;;;;;;;10.43;9.50;;;;;;;;;;6059410;29;20229;-67
2022/05/24 03:49:10;;;;;;;9.00;8.30;;;;;;;;;;6064859;29;20236;-68
2022/05/24 03:52:30;;;;;;;8.70;7.90;;;;;;;;;;6067491;29;20237;-67
2022/05/24 03:55:51;;;;;;;8.73;7.87;;;;;;;;;;6067038;29;20863;-67
2022/05/24 03:59:13;;;;;;;10.20;9.20;;;;;;;;;;6062692;29;20321;-67
2022/05/24 04:02:33;;;;;;;7.53;6.93;;;;;;;;;;6061015;29;20338;-68
2022/05/24 04:05:54;;;;;;;8.17;7.47;;;;;;;;;;6063329;29;20241;-67
2022/05/24 04:09:14;;;;;;;8.80;7.77;;;;;;;;;;6066032;29;20255;-67
2022/05/24 04:12:37;;;;;;;9.10;8.17;;;;;;;;;;6062299;29;20308;-67
2022/05/24 04:15:59;;;;;;;8.20;6.27;;;;;;;;;;6060984;29;20240;-68
2022/05/24 04:19:20;;;;;;;5.87;5.37;;;;;;;;;;6061478;29;20229;-67
2022/05/24 04:22:40;;;;;;;5.87;5.30;;;;;;;;;;6064708;29;20237;-67
2022/05/24 04:26:04;;;;;;;6.43;5.83;;;;;;;;;;6066317;29;20249;-67
2022/05/24 04:29:26;;;;;;;8.47;6.17;;;;;;;;;;6062210;29;20237;-67
2022/05/24 04:32:47;;;;;;;6.37;5.67;;;;;;;;;;6065474;29;20233;-68
2022/05/24 04:36:08;;;;;;;6.73;5.67;;;;;;;;;;6062929;29;20790;-67
2022/05/24 04:39:31;;;;;;;6.33;5.73;;;;;;;;;;6062426;29;20256;-67
2022/05/24 04:42:50;;;;;;;5.73;4.97;;;;;;;;;;6062696;29;20236;-67
2022/05/24 04:46:12;;;;;;;6.70;4.60;;;;;;;;;;6062253;29;20249;-67
2022/05/24 04:49:37;;;;;;;5.20;4.50;;;;;;;;;;6064303;29;20233;-66
2022/05/24 04:52:59;;;;;;;6.03;4.83;;;;;;;;;;6061165;29;20245;-67
2022/05/24 04:56:19;;;;;;;7.60;4.67;;;;;;;;;;6063982;29;20237;-67
2022/05/24 04:59:40;;;;;;;5.90;4.33;;;;;;;;;;6061888;29;20703;-68
2022/05/24 05:03:06;;;;;;;4.50;4.13;;;;;;;;;;6044501;29;20253;-68
2022/05/24 05:06:30;;;;;;;3.90;3.60;;;;;;;;;;6052905;29;20232;-68
2022/05/24 05:09:51;;;;;;;5.03;4.53;;;;;;;;;;6059717;29;20244;-67
2022/05/24 05:13:11;;;;;;;4.03;3.63;;;;;;;;;;6047269;29;20234;-69
2022/05/24 05:16:32;;;;;;;7.10;4.60;;;;;;;;;;6051332;29;20245;-74
2022/05/24 05:19:54;;;;;;;4.37;3.33;;;;;;;;;;6057126;29;20703;-74
2022/05/24 05:23:19;;;;;;;5.50;4.90;;;;;;;;;;6065152;29;20241;-74
2022/05/24 05:26:39;;;;;;;4.93;3.73;;;;;;;;;;6066273;29;20241;-75
2022/05/24 05:33:38;;;;;;;4.50;4.03;;;;;;;;;;6063137;29;20237;-72
2022/05/24 05:36:58;;;;;;;5.50;4.13;;;;;;;;;;6063548;29;20316;-73
2022/05/24 05:40:20;;;;;;;4.83;4.27;;;;;;;;;;6065432;29;20237;-73
2022/05/24 05:43:41;;;;;;;5.43;4.50;;;;;;;;;;6064685;29;20336;-73
2022/05/24 05:47:02;;;;;;;6.93;5.17;;;;;;;;;;6054317;29;20229;-73
2022/05/24 05:50:25;;;;;;;5.67;5.17;;;;;;;;;;6052478;29;20324;-74
2022/05/24 05:53:46;;;;;;;6.23;5.63;;;;;;;;;;6053269;29;20311;-74
2022/05/24 05:57:11;;;;;;;6.47;4.70;;;;;;;;;;6044823;29;20229;-73
2022/05/24 06:00:31;;;;;;;6.00;4.00;;;;;;;;;;6052934;29;20241;-73
2022/05/24 06:03:52;;;;;;;4.27;3.87;;;;;;;;;;6054123;29;20241;-73
2022/05/24 06:07:12;;;;;;;5.27;4.20;;;;;;;;;;6049573;29;20844;-73
2022/05/24 06:10:34;;;;;;;7.00;4.40;;;;;;;;;;6064721;29;20233;-73
2022/05/24 06:13:56;;;;;;;5.80;4.67;;;;;;;;;;6060433;29;20324;-72
2022/05/24 06:17:16;;;;;;;4.70;4.30;;;;;;;;;;6060029;29;20257;-74
2022/05/24 06:20:37;;;;;;;4.97;4.47;;;;;;;;;;6066115;29;20237;-73
2022/05/24 06:23:58;;;;;;;5.07;4.68;;;;;;;;;;6064820;29;20249;-75
2022/05/24 06:27:20;;;;;;;6.07;5.47;;;;;;;;;;6064038;29;20623;-75
2022/05/24 06:30:42;;;;;;;7.93;5.97;;;;;;;;;;6060492;29;20240;-75
2022/05/24 06:34:04;;;;;;;9.47;8.67;;;;;;;;;;6059100;29;20237;-75
2022/05/24 06:37:25;;;;;;;6.57;5.97;;;;;;;;;;6055369;29;20225;-75
2022/05/24 06:40:47;;;;;;;6.67;6.20;;;;;;;;;;6064562;29;20233;-74
2022/05/24 06:44:08;;;;;;;7.13;6.53;;;;;;;;;;6061734;29;20339;-75
2022/05/24 06:47:30;;;;;;;6.90;6.40;;;;;;;;;;6063605;29;20623;-76
2022/05/24 06:50:51;;;;;;;6.20;5.70;;;;;;;;;;6065283;29;20238;-74
2022/05/24 06:54:11;;;;;;;6.57;5.97;;;;;;;;;;6064512;29;20292;-74
2022/05/24 06:57:32;;;;;;;6.10;5.60;;;;;;;;;;6061592;29;20826;-74
2022/05/24 07:04:43;;;;;;;6.50;5.90;;;;;;;;;;5981226;29;20265;-73
2022/05/24 07:08:05;;;;;;;8.87;6.67;;;;;;;;;;6064780;29;20757;-74
2022/05/24 07:11:25;;;;;;;7.50;6.80;;;;;;;;;;6061149;29;20240;-74
2022/05/24 07:14:45;;;;;;;8.95;8.23;;;;;;;;;;6066536;29;20510;-72
2022/05/24 07:18:06;;;;;;;8.83;8.13;;;;;;;;;;6067143;29;20237;-74
2022/05/24 07:21:28;;;;;;;9.80;9.00;;;;;;;;;;6067260;29;20257;-73
2022/05/24 07:24:49;;;;;;;8.97;8.37;;;;;;;;;;6067253;29;20244;-74
2022/05/24 07:28:11;;;;;;;9.73;8.93;;;;;;;;;;6064657;29;20233;-73
2022/05/24 07:31:32;;;;;;;9.35;8.52;;;;;;;;;;6069959;29;20229;-73
2022/05/24 07:34:53;;;;;;;9.13;8.43;;;;;;;;;;6071984;29;20241;-73
2022/05/24 07:38:16;;;;;;;12.43;8.70;;;;;;;;;;6069526;29;20237;-72
2022/05/24 07:48:52;;;;;;;10.05;9.15;;;;;;;;;;6068347;29;20228;-73
2022/05/24 07:52:13;;;;;;;10.82;9.93;;;;;;;;;;6067079;29;20225;-75
2022/05/24 07:55:35;;;;;;;10.57;9.68;;;;;;;;;;6070256;29;20229;-73
2022/05/24 07:58:56;;;;;;;11.82;10.50;;;;;;;;;;6054117;29;20233;-73
2022/05/24 08:02:18;;;;;;;11.32;10.32;;;;;;;;;;6066641;29;20245;-74
2022/05/24 08:05:39;;;;;;;11.50;10.40;;;;;;;;;;6068910;29;20245;-73
2022/05/24 08:09:00;;;;;;;11.77;10.57;;;;;;;;;;6071355;29;20328;-73
2022/05/24 08:12:22;;;;;;;11.07;10.13;;;;;;;;;;6074836;29;20229;-74
2022/05/24 08:15:43;;;;;;;14.10;12.70;;;;;;;;;;6076871;29;20233;-74
2022/05/24 08:19:04;;;;;;;11.40;10.23;;;;;;;;;;6077665;29;20233;-74
2022/05/24 08:22:25;;;;;;;10.93;9.83;;;;;;;;;;6073018;29;20237;-73
2022/05/24 08:25:46;;;;;;;11.43;10.38;;;;;;;;;;6072587;29;20634;-71
2022/05/24 08:29:08;;;;;;;12.38;11.10;;;;;;;;;;6070457;29;20230;-73
2022/05/24 08:32:29;;;;;;;10.32;9.43;;;;;;;;;;6072434;29;20242;-72
2022/05/24 08:35:51;;;;;;;11.32;10.05;;;;;;;;;;6063386;29;20233;-72
2022/05/24 08:39:12;;;;;;;10.07;9.17;;;;;;;;;;6074534;29;20237;-72
2022/05/24 08:42:39;;;;;;;11.57;10.32;;;;;;;;;;6073407;29;20236;-72
2022/05/24 08:49:40;;;;;;;10.77;9.05;;;;;;;;;;6075072;29;20237;-73
2022/05/24 08:53:04;;;;;;;9.48;8.57;;;;;;;;;;6077406;29;20229;-72
2022/05/24 08:56:26;;;;;;;10.88;8.95;;;;;;;;;;6073639;29;20422;-72
2022/05/24 08:59:49;;;;;;;10.05;9.15;;;;;;;;;;6072606;29;20595;-73
2022/05/24 09:03:15;;;;;;;9.85;9.02;;;;;;;;;;6073797;29;20229;-73
2022/05/24 09:06:40;;;;;;;11.10;10.10;;;;;;;;;;6074536;29;20601;-73
2022/05/24 09:10:02;;;;;;;11.23;10.33;;;;;;;;;;6075338;29;20516;-71
2022/05/24 09:13:32;;;;;;;11.23;10.27;;;;;;;;;;6075651;29;20244;-72
2022/05/24 09:16:54;;;;;;;13.95;11.20;;;;;;;;;;6075905;29;20237;-73
2022/05/24 09:20:27;;;;;;;11.85;10.70;;;;;;;;;;6069771;29;20616;-73
2022/05/24 09:23:48;;;;;;;10.73;9.90;;;;;;;;;;6074860;29;20236;-72
2022/05/24 09:27:11;;;;;;;10.25;9.40;;;;;;;;;;6068494;29;20261;-72
2022/05/24 09:30:38;;;;;;;10.15;9.25;;;;;;;;;;6055331;29;20659;-72
2022/05/24 09:33:59;;;;;;;9.70;8.88;;;;;;;;;;6070859;29;20233;-73
2022/05/24 09:37:26;;;;;;;11.38;10.23;;;;;;;;;;6070386;29;20233;-73
2022/05/24 09:40:49;;;;;;;10.70;9.68;;;;;;;;;;6073648;29;20217;-73
2022/05/24 09:44:15;;;;;;;11.65;9.10;;;;;;;;;;6070301;29;20238;-73
2022/05/24 09:47:38;;;;;;;11.63;10.52;;;;;;;;;;6071191;29;20237;-72
2022/05/24 09:50:59;;;;;;;10.52;9.63;;;;;;;;;;6072341;29;20245;-71
2022/05/24 09:54:24;;;;;;;10.35;9.35;;;;;;;;;;6070510;29;20233;-73
2022/05/24 09:57:45;;;;;;;10.45;9.55;;;;;;;;;;6048004;29;20237;-73
2022/05/24 10:01:07;;;;;;;9.75;8.95;;;;;;;;;;6069131;29;20337;-72
2022/05/24 10:04:29;;;;;;;10.32;9.20;;;;;;;;;;6074519;29;20336;-73
2022/05/24 10:07:58;;;;;;;9.80;7.30;;;;;;;;;;6074975;29;20233;-73
2022/05/24 10:11:23;;;;;;;8.13;7.43;;;;;;;;;;6070370;29;20241;-72
2022/05/24 10:14:46;;;;;;;8.90;7.50;;;;;;;;;;6073364;29;20232;-72
2022/05/24 10:18:15;;;;;;;8.90;8.13;;;;;;;;;;6072308;29;20233;-72
2022/05/24 10:21:39;;;;;;;8.47;6.40;;;;;;;;;;6069331;29;20366;-72
2022/05/24 10:25:06;;;;;;;9.13;7.73;;;;;;;;;;6068753;29;20233;-72
2022/05/24 10:28:33;;;;;;;9.43;8.63;;;;;;;;;;6060473;29;20233;-73
2022/05/24 10:31:56;;;;;;;10.27;9.27;;;;;;;;;;6067532;29;20237;-73
2022/05/24 10:39:12;;;;;;;10.63;9.40;;;;;;;;;;6072454;29;20233;-74
2022/05/24 10:42:43;;;;;;;14.33;9.77;;;;;;;;;;6070348;29;20233;-73
2022/05/24 10:46:09;;;;;;;10.57;9.53;;;;;;;;;;6073247;29;20335;-73
2022/05/24 10:49:34;;;;;;;11.03;10.07;;;;;;;;;;6071311;29;21053;-73
2022/05/24 10:52:58;;;;;;;12.93;11.60;;;;;;;;;;6072230;29;21303;-73
2022/05/24 10:56:27;;;;;;;13.70;12.40;;;;;;;;;;6073435;29;20627;-73
2022/05/24 10:59:54;;;;;;;16.97;14.27;;;;;;;;;;6067641;29;20642;-72
2022/05/24 11:03:17;;;;;;;13.77;12.60;;;;;;;;;;6063141;29;20226;-72
2022/05/24 11:06:39;;;;;;;14.23;12.93;;;;;;;;;;6058019;29;20244;-73
2022/05/24 11:10:06;;;;;;;13.53;12.33;;;;;;;;;;6066108;29;20260;-72
2022/05/24 11:13:31;;;;;;;12.27;11.07;;;;;;;;;;6069849;29;20237;-71
2022/05/24 11:16:53;;;;;;;12.10;10.90;;;;;;;;;;6060005;29;20238;-72
2022/05/24 11:20:21;;;;;;;13.20;11.87;;;;;;;;;;6068501;29;20233;-72
2022/05/24 11:23:45;;;;;;;12.37;11.37;;;;;;;;;;6067090;29;20319;-72
2022/05/24 11:27:07;;;;;;;13.17;12.10;;;;;;;;;;6072964;29;20263;-72
2022/05/24 11:30:34;;;;;;;11.80;10.63;;;;;;;;;;6068825;29;20553;-72
2022/05/24 11:33:56;;;;;;;10.93;10.03;;;;;;;;;;6073192;29;20327;-72
2022/05/24 11:37:24;;;;;;;10.90;10.00;;;;;;;;;;6072279;29;20234;-73
2022/05/24 11:41:07;;;;;;;9.53;8.60;;;;;;;;;;6065720;29;20671;-73
2022/05/24 11:44:29;;;;;;;7.23;6.53;;;;;;;;;;6074569;29;20241;-73
2022/05/24 11:47:56;;;;;;;7.40;6.70;;;;;;;;;;6077381;29;20233;-72
2022/05/24 11:51:34;;;;;;;5.53;3.93;;;;;;;;;;6075358;29;20241;-73
2022/05/24 11:54:56;;;;;;;5.27;4.50;;;;;;;;;;6076195;29;20241;-72
2022/05/24 11:58:40;;;;;;;4.97;4.30;;;;;;;;;;6073919;29;20246;-72
2022/05/24 12:02:01;;;;;;;6.13;5.37;;;;;;;;;;6075352;29;20237;-73
2022/05/24 12:09:10;;;;;;;6.10;5.57;;;;;;;;;;6075385;29;20233;-73
2022/05/24 12:12:33;;;;;;;6.97;6.20;;;;;;;;;;6076131;29;20890;-73
2022/05/24 12:15:56;;;;;;;8.63;6.60;;;;;;;;;;6072547;29;20244;-73
2022/05/24 12:19:37;;;;;;;7.85;6.97;;;;;;;;;;6072138;29;20237;-74
2022/05/24 12:23:14;;;;;;;7.50;6.60;;;;;;;;;;6073247;29;20500;-72
2022/05/24 12:26:50;;;;;;;6.90;6.20;;;;;;;;;;6077244;29;20320;-73
2022/05/24 12:30:19;;;;;;;8.23;7.07;;;;;;;;;;6057978;29;20245;-72
2022/05/24 12:33:43;;;;;;;8.15;6.28;;;;;;;;;;6057359;29;20229;-74
2022/05/24 12:37:07;;;;;;;6.68;5.43;;;;;;;;;;6071136;29;20671;-73
2022/05/24 12:40:28;;;;;;;7.95;5.90;;;;;;;;;;6063354;29;20262;-73
2022/05/24 12:43:53;;;;;;;8.07;6.40;;;;;;;;;;6061041;29;20773;-74
2022/05/24 12:47:16;;;;;;;7.33;5.80;;;;;;;;;;6076576;29;20233;-73
2022/05/24 12:50:39;;;;;;;7.65;4.97;;;;;;;;;;6073510;29;20233;-72
2022/05/24 12:54:13;;;;;;;5.13;4.50;;;;;;;;;;6070471;29;20241;-73
2022/05/24 12:57:37;;;;;;;4.40;4.00;;;;;;;;;;6072857;29;20570;-72
2022/05/24 13:01:22;;;;;;;4.20;3.83;;;;;;;;;;6072565;29;20528;-73
2022/05/24 13:04:44;;;;;;;5.45;3.90;;;;;;;;;;6066916;29;20225;-73
2022/05/24 13:08:17;;;;;;;8.38;4.13;;;;;;;;;;6055844;29;20268;-73
2022/05/24 13:11:38;;;;;;;4.43;4.13;;;;;;;;;;6075323;29;20646;-73
2022/05/24 13:15:00;;;;;;;4.57;4.18;;;;;;;;;;6057976;29;20638;-71
2022/05/24 13:18:22;;;;;;;5.32;3.85;;;;;;;;;;6075104;29;20256;-72
2022/05/24 13:21:44;;;;;;;6.10;3.58;;;;;;;;;;6073711;29;20319;-73
2022/05/24 13:25:05;;;;;;;3.75;3.45;;;;;;;;;;6074615;29;20256;-73
2022/05/24 13:28:32;;;;;;;5.20;4.68;;;;;;;;;;6070523;29;20225;-73
2022/05/24 13:35:31;;;;;;;7.18;4.93;;;;;;;;;;6074136;29;20229;-73
2022/05/24 13:39:07;;;;;;;4.80;4.32;;;;;;;;;;6070855;29;20956;-74
2022/05/24 13:42:28;;;;;;;4.55;4.15;;;;;;;;;;6074208;29;20506;-74
2022/05/24 13:45:48;;;;;;;4.32;3.92;;;;;;;;;;6074058;29;20496;-73
2022/05/24 13:49:09;;;;;;;4.47;3.45;;;;;;;;;;6065549;29;20229;-73
2022/05/24 13:52:31;;;;;;;6.10;4.68;;;;;;;;;;6074587;29;20281;-73
2022/05/24 13:55:56;;;;;;;6.90;4.80;;;;;;;;;;6072152;29;20429;-72
2022/05/24 13:59:19;;;;;;;5.95;4.68;;;;;;;;;;6059456;29;20237;-73
2022/05/24 14:02:40;;;;;;;4.28;3.88;;;;;;;;;;6058926;29;20628;-74
2022/05/24 14:06:03;;;;;;;4.22;3.88;;;;;;;;;;6072602;29;20244;-73
2022/05/24 14:09:24;;;;;;;4.13;3.42;;;;;;;;;;6067756;29;20241;-73
2022/05/24 14:12:46;;;;;;;4.75;3.58;;;;;;;;;;6062693;29;20233;-74
2022/05/24 14:16:07;;;;;;;3.55;3.25;;;;;;;;;;6071359;29;20703;-73
2022/05/24 14:19:27;;;;;;;3.97;3.58;;;;;;;;;;6073105;29;20236;-74
2022/05/24 14:22:48;;;;;;;4.18;3.85;;;;;;;;;;6060981;29;20240;-72
2022/05/24 14:26:09;;;;;;;6.10;4.03;;;;;;;;;;6067014;29;20241;-73
2022/05/24 14:29:32;;;;;;;5.97;3.70;;;;;;;;;;6068982;29;20256;-73
2022/05/24 14:32:59;;;;;;;5.18;4.68;;;;;;;;;;6072414;29;20237;-74
2022/05/24 14:36:19;;;;;;;5.20;4.25;;;;;;;;;;6072741;29;20237;-73
2022/05/24 14:39:40;;;;;;;4.50;3.53;;;;;;;;;;6066843;29;21063;-73
2022/05/24 14:43:01;;;;;;;4.20;3.80;;;;;;;;;;6069467;29;20241;-72
2022/05/24 14:46:23;;;;;;;3.95;3.65;;;;;;;;;;6067665;29;20316;-75
2022/05/24 14:49:44;;;;;;;3.90;3.60;;;;;;;;;;6066686;29;20248;-71
2022/05/24 14:53:06;;;;;;;3.63;3.30;;;;;;;;;;6074268;29;20237;-73
2022/05/24 14:56:26;;;;;;;6.82;5.38;;;;;;;;;;6065437;29;20233;-72
2022/05/24 14:59:47;;;;;;;7.32;5.55;;;;;;;;;;6066566;29;20228;-73
2022/05/24 15:03:09;;;;;;;6.32;5.75;;;;;;;;;;6060503;29;20241;-73
2022/05/24 15:06:30;;;;;;;6.90;6.30;;;;;;;;;;6046480;29;21924;-73
2022/05/24 15:17:08;;;;;;;5.63;5.13;;;;;;;;;;6058495;29;20252;-73
2022/05/24 15:20:31;;;;;;;6.00;4.97;;;;;;;;;;6054100;29;20268;-73
2022/05/24 15:23:54;;;;;;;5.87;4.97;;;;;;;;;;6061899;29;20715;-73
2022/05/24 15:27:16;;;;;;;5.30;4.90;;;;;;;;;;6062836;29;20237;-73
2022/05/24 15:30:37;;;;;;;6.35;5.75;;;;;;;;;;6065142;29;20663;-73
2022/05/24 15:33:57;;;;;;;4.80;4.50;;;;;;;;;;6063283;29;20245;-72
2022/05/24 15:37:19;;;;;;;3.67;3.38;;;;;;;;;;6059262;29;20246;-72
2022/05/24 15:40:39;;;;;;;7.35;4.97;;;;;;;;;;6063084;29;20694;-73
2022/05/24 15:44:00;;;;;;;4.35;4.05;;;;;;;;;;6057216;29;20320;-68
2022/05/24 15:47:21;;;;;;;5.43;4.97;;;;;;;;;;6068276;29;20260;-69
2022/05/24 15:50:41;;;;;;;4.38;3.50;;;;;;;;;;6062464;29;20272;-69
2022/05/24 15:54:03;;;;;;;3.90;3.60;;;;;;;;;;6052986;29;20252;-69
2022/05/24 15:57:24;;;;;;;5.22;4.20;;;;;;;;;;6067191;29;20241;-68
2022/05/24 16:00:44;;;;;;;4.80;4.25;;;;;;;;;;6062348;29;20229;-68
2022/05/24 16:04:05;;;;;;;4.20;3.80;;;;;;;;;;6061850;29;20238;-68
2022/05/24 16:11:09;;;;;;;4.87;4.47;;;;;;;;;;6068205;29;20233;-69
2022/05/24 16:14:33;;;;;;;4.15;3.85;;;;;;;;;;6062266;29;20237;-70
2022/05/24 16:17:56;;;;;;;3.83;3.53;;;;;;;;;;6059217;29;20273;-69
2022/05/24 16:21:17;;;;;;;3.85;3.65;;;;;;;;;;6053442;29;20241;-69
2022/05/24 16:24:38;;;;;;;4.85;3.58;;;;;;;;;;6059163;29;20233;-70
2022/05/24 16:28:00;;;;;;;3.70;3.40;;;;;;;;;;6067164;29;20225;-70
2022/05/24 16:31:20;;;;;;;3.60;3.38;;;;;;;;;;6058658;29;20241;-69
2022/05/24 16:34:41;;;;;;;2.97;2.78;;;;;;;;;;6065397;29;20233;-69
2022/05/24 16:38:01;;;;;;;3.60;3.30;;;;;;;;;;6060040;29;20248;-69
2022/05/24 16:41:22;;;;;;;4.78;2.90;;;;;;;;;;6058496;29;20337;-70
2022/05/24 16:44:44;;;;;;;3.58;3.28;;;;;;;;;;6061569;29;20632;-68
2022/05/24 16:48:05;;;;;;;3.28;3.08;;;;;;;;;;6058303;29;20230;-69
2022/05/24 16:51:32;;;;;;;4.15;3.42;;;;;;;;;;6063049;29;20256;-70
2022/05/24 16:58:44;;;;;;;3.95;3.65;;;;;;;;;;6059631;29;20233;-69
2022/05/24 17:02:07;;;;;;;4.88;4.20;;;;;;;;;;6057184;29;20234;-68
2022/05/24 17:05:31;;;;;;;4.00;3.60;;;;;;;;;;6059942;29;20225;-68
2022/05/24 17:08:52;;;;;;;3.27;3.03;;;;;;;;;;6063643;29;20237;-70
2022/05/24 17:12:13;;;;;;;4.40;4.10;;;;;;;;;;6038259;29;20248;-68
2022/05/24 17:15:34;;;;;;;4.00;3.60;;;;;;;;;;6057200;29;20578;-68
2022/05/24 17:18:57;;;;;;;1.55;1.05;;;;;;;;;;6058162;29;20245;-69
2022/05/24 17:22:17;;;;;;;4.13;3.58;;;;;;;;;;6049474;29;20233;-65
2022/05/24 17:25:38;;;;;;;4.33;1.93;;;;;;;;;;6055879;29;21856;-66
2022/05/24 17:28:59;;;;;;;1.40;1.30;;;;;;;;;;6058521;29;20233;-67
2022/05/24 17:32:20;;;;;;;2.63;1.63;;;;;;;;;;6058280;29;20331;-67
2022/05/24 17:35:42;;;;;;;2.27;1.07;;;;;;;;;;6058856;29;20233;-67
2022/05/24 17:39:03;;;;;;;2.53;1.13;;;;;;;;;;6059618;29;20261;-67
2022/05/24 17:42:24;;;;;;;0.60;0.60;;;;;;;;;;6061148;29;20238;-66
2022/05/24 17:45:45;;;;;;;10.87;9.73;;;;;;;;;;6065832;29;20550;-67
2022/05/24 17:49:05;;;;;;;7.20;6.50;;;;;;;;;;6064904;29;20327;-67
2022/05/24 17:52:28;;;;;;;3.10;2.70;;;;;;;;;;6064054;29;21099;-67
2022/05/24 17:55:50;;;;;;;1.73;1.00;;;;;;;;;;6059438;29;20238;-68
2022/05/24 17:59:10;;;;;;;1.63;1.20;;;;;;;;;;6063363;29;20241;-67
2022/05/24 18:02:31;;;;;;;0.73;0.70;;;;;;;;;;6063177;29;20312;-67
2022/05/24 18:05:52;;;;;;;1.93;0.87;;;;;;;;;;6047265;29;20233;-69
2022/05/24 18:09:15;;;;;;;0.80;0.80;;;;;;;;;;6060644;29;20236;-75
2022/05/24 18:12:36;;;;;;;0.90;0.60;;;;;;;;;;6061585;29;20241;-76
2022/05/24 18:15:57;;;;;;;1.70;0.75;;;;;;;;;;6062636;29;20241;-73
2022/05/24 18:19:19;;;;;;;0.57;0.50;;;;;;;;;;6059929;29;20237;-69
2022/05/24 18:22:41;;;;;;;2.67;0.70;;;;;;;;;;6063716;29;20574;-74
2022/05/24 18:33:29;;;;;;;2.07;1.00;;;;;;;;;;6061513;29;20249;-71
2022/05/24 18:36:53;;;;;;;2.30;0.97;;;;;;;;;;6066372;29;20596;-71
2022/05/24 18:40:14;;;;;;;1.60;1.10;;;;;;;;;;6063297;29;20237;-70
2022/05/24 18:43:36;;;;;;;1.83;1.40;;;;;;;;;;6062417;29;20232;-70
2022/05/24 18:46:57;;;;;;;2.37;1.37;;;;;;;;;;6068741;29;20229;-74
2022/05/24 18:50:17;;;;;;;1.27;1.03;;;;;;;;;;6064228;29;20233;-71
2022/05/24 18:53:37;;;;;;;1.70;1.00;;;;;;;;;;6063226;29;20245;-74
2022/05/24 18:56:58;;;;;;;1.93;1.60;;;;;;;;;;6055538;29;20268;-71
2022/05/24 19:00:21;;;;;;;1.23;1.07;;;;;;;;;;6057574;29;20711;-69
2022/05/24 19:03:41;;;;;;;1.97;1.43;;;;;;;;;;6061586;29;20225;-71
2022/05/24 19:07:17;;;;;;;2.13;1.60;;;;;;;;;;6056863;29;20237;-70
2022/05/24 19:10:38;;;;;;;2.87;1.40;;;;;;;;;;6058989;29;20241;-69
2022/05/24 19:13:58;;;;;;;1.77;1.47;;;;;;;;;;6054207;29;20328;-71
2022/05/24 19:17:21;;;;;;;4.43;2.33;;;;;;;;;;6058390;29;20252;-71
2022/05/24 19:20:43;;;;;;;3.60;2.03;;;;;;;;;;6057205;29;20229;-69
2022/05/24 19:24:04;;;;;;;2.37;1.80;;;;;;;;;;6063170;29;20261;-69
2022/05/24 19:27:26;;;;;;;2.63;1.60;;;;;;;;;;6065136;29;20229;-70
2022/05/24 19:30:47;;;;;;;2.47;1.20;;;;;;;;;;6057072;29;22132;-68
2022/05/24 19:34:09;;;;;;;3.93;1.73;;;;;;;;;;6061974;29;20565;-70
2022/05/24 19:37:29;;;;;;;2.37;1.40;;;;;;;;;;6062667;29;20770;-71
2022/05/24 19:44:28;;;;;;;3.00;1.10;;;;;;;;;;6064868;29;20228;-71
2022/05/24 19:47:48;;;;;;;3.10;1.40;;;;;;;;;;6057229;29;20225;-71
2022/05/24 19:51:11;;;;;;;8.07;2.23;;;;;;;;;;6062923;29;20241;-70
2022/05/24 19:54:31;;;;;;;3.70;2.20;;;;;;;;;;6058005;29;20237;-70
2022/05/24 19:57:52;;;;;;;7.00;5.40;;;;;;;;;;6063825;29;20229;-70
2022/05/24 20:01:12;;;;;;;4.37;1.67;;;;;;;;;;6057694;29;20332;-71
2022/05/24 20:04:33;;;;;;;2.80;1.10;;;;;;;;;;6063905;29;20233;-69
2022/05/24 20:07:55;;;;;;;2.47;1.83;;;;;;;;;;6056240;29;20521;-70
2022/05/24 20:11:15;;;;;;;3.53;2.27;;;;;;;;;;6068675;29;20233;-72
2022/05/24 20:14:36;;;;;;;4.07;1.93;;;;;;;;;;6063675;29;20754;-71
2022/05/24 20:17:57;;;;;;;3.57;1.80;;;;;;;;;;6062456;29;20292;-71
2022/05/24 20:21:17;;;;;;;5.77;2.47;;;;;;;;;;6064714;29;20249;-71
2022/05/24 20:24:40;;;;;;;2.90;2.13;;;;;;;;;;6068523;29;20253;-71
2022/05/24 20:28:01;;;;;;;3.23;1.73;;;;;;;;;;6066018;29;20240;-70
2022/05/24 20:31:21;;;;;;;1.97;1.50;;;;;;;;;;6066329;29;20237;-70
2022/05/24 20:34:42;;;;;;;2.23;2.03;;;;;;;;;;6065842;29;20237;-70
2022/05/24 20:38:02;;;;;;;6.07;2.50;;;;;;;;;;6065265;29;20700;-69
2022/05/24 20:41:25;;;;;;;2.77;1.90;;;;;;;;;;6069900;29;20262;-70
2022/05/24 20:44:45;;;;;;;3.33;1.87;;;;;;;;;;6063777;29;20530;-71
2022/05/24 20:48:06;;;;;;;1.73;1.60;;;;;;;;;;6071395;29;20229;-70
2022/05/24 20:51:26;;;;;;;2.20;1.90;;;;;;;;;;6061891;29;20531;-70
2022/05/24 20:54:47;;;;;;;3.47;1.67;;;;;;;;;;6064520;29;20237;-70
2022/05/24 20:58:09;;;;;;;2.27;1.37;;;;;;;;;;6051886;29;20233;-71
2022/05/24 21:01:29;;;;;;;2.23;1.53;;;;;;;;;;6059233;29;20273;-70
2022/05/24 21:04:53;;;;;;;2.33;2.13;;;;;;;;;;6063419;29;20628;-70
2022/05/24 21:08:17;;;;;;;2.80;2.47;;;;;;;;;;6065188;29;20233;-70
2022/05/24 21:11:38;;;;;;;3.87;2.50;;;;;;;;;;6071255;29;20233;-70
2022/05/24 21:14:59;;;;;;;2.97;1.93;;;;;;;;;;6061837;29;20612;-70
2022/05/24 21:18:21;;;;;;;3.90;2.70;;;;;;;;;;6067142;29;20541;-71